createdAt,value
2023-04-23T00:01:44.207Z,6.78
2023-04-23T00:04:10.957Z,7.82
2023-04-23T00:06:37.667Z,6.75
2023-04-23T00:09:04.630Z,4.50
2023-04-23T00:11:31.517Z,10.65
2023-04-23T00:13:58.344Z,8.68
2023-04-23T00:16:25.534Z,8.98
2023-04-23T00:18:52.230Z,7.18
2023-04-23T00:21:18.929Z,3.95
2023-04-23T00:23:45.632Z,9.35
2023-04-23T00:26:12.366Z,6.20
2023-04-23T00:28:39.112Z,9.35
2023-04-23T00:31:05.861Z,10.77
2023-04-23T00:33:32.537Z,7.40
2023-04-23T00:35:59.259Z,4.65
2023-04-23T00:38:26.601Z,5.35
2023-04-23T00:40:53.290Z,5.55
2023-04-23T00:43:20.653Z,2.92
2023-04-23T00:45:48.057Z,6.15
2023-04-23T00:48:14.804Z,7.65
2023-04-23T00:50:42.098Z,8.73
2023-04-23T00:53:08.873Z,10.50
2023-04-23T00:55:35.600Z,6.43
2023-04-23T00:58:02.448Z,12.75
2023-04-23T01:00:29.209Z,11.75
2023-04-23T01:02:56.013Z,10.23
2023-04-23T01:05:22.765Z,11.32
2023-04-23T01:07:49.517Z,13.15
2023-04-23T01:10:17.190Z,8.10
2023-04-23T01:12:45.064Z,7.05
2023-04-23T01:15:11.889Z,11.57
2023-04-23T01:17:38.815Z,10.50
2023-04-23T01:20:06.581Z,9.13
2023-04-23T01:22:36.334Z,14.05
2023-04-23T01:25:03.620Z,10.68
2023-04-23T01:27:30.606Z,10.05
2023-04-23T01:29:57.289Z,11.25
2023-04-23T01:32:24.143Z,13.43
2023-04-23T01:34:50.867Z,7.35
2023-04-23T01:37:17.581Z,6.40
2023-04-23T01:39:44.250Z,6.55
2023-04-23T01:42:11.136Z,6.28
2023-04-23T01:44:38.062Z,8.13
2023-04-23T01:47:06.946Z,8.25
2023-04-23T01:49:33.980Z,7.50
2023-04-23T01:52:00.677Z,7.75
2023-04-23T01:54:27.437Z,8.25
2023-04-23T01:56:55.711Z,6.63
2023-04-23T01:59:22.890Z,8.02
2023-04-23T02:01:49.812Z,11.23
2023-04-23T02:04:17.131Z,8.20
2023-04-23T02:06:47.143Z,7.28
2023-04-23T02:09:14.023Z,9.75
2023-04-23T02:11:40.719Z,3.38
2023-04-23T02:14:07.622Z,8.55
2023-04-23T02:16:34.938Z,7.10
2023-04-23T02:19:01.913Z,5.07
2023-04-23T02:21:29.727Z,8.57
2023-04-23T02:23:56.526Z,8.25
2023-04-23T02:26:23.706Z,8.02
2023-04-23T02:28:50.933Z,12.10
2023-04-23T02:31:17.919Z,9.95
2023-04-23T02:33:44.814Z,17.02
2023-04-23T02:36:12.297Z,9.88
2023-04-23T02:38:42.438Z,13.90
2023-04-23T02:41:09.296Z,11.73
2023-04-23T02:43:36.052Z,12.68
2023-04-23T02:46:08.602Z,14.23
2023-04-23T02:48:40.277Z,10.68
2023-04-23T02:51:08.128Z,15.32
2023-04-23T02:53:34.797Z,15.82
2023-04-23T02:56:02.878Z,7.85
2023-04-23T02:58:29.628Z,14.70
2023-04-23T03:00:56.476Z,12.05
2023-04-23T03:03:26.537Z,9.77
2023-04-23T03:05:53.734Z,9.48
2023-04-23T03:08:20.458Z,9.85
2023-04-23T03:10:47.161Z,12.20
2023-04-23T03:13:13.897Z,10.45
2023-04-23T03:15:41.180Z,7.53
2023-04-23T03:18:08.484Z,9.38
2023-04-23T03:20:35.851Z,6.82
2023-04-23T03:23:02.883Z,11.32
2023-04-23T03:25:29.635Z,5.68
2023-04-23T03:27:56.332Z,11.55
2023-04-23T03:30:23.029Z,10.13
2023-04-23T03:32:50.498Z,10.60
2023-04-23T03:35:17.291Z,9.48
2023-04-23T03:37:43.979Z,10.32
2023-04-23T03:40:10.881Z,15.27
2023-04-23T03:42:37.589Z,6.20
2023-04-23T03:45:04.794Z,16.85
2023-04-23T03:47:31.642Z,9.00
2023-04-23T03:49:58.468Z,12.68
2023-04-23T03:52:25.184Z,9.75
2023-04-23T03:54:51.847Z,8.05
2023-04-23T03:57:18.657Z,15.50
2023-04-23T03:59:45.424Z,12.43
2023-04-23T04:02:12.218Z,9.98
2023-04-23T04:04:39.154Z,16.48
2023-04-23T04:07:07.681Z,11.05
2023-04-23T04:09:34.426Z,14.23
2023-04-23T04:12:01.656Z,11.38
2023-04-23T04:14:28.352Z,5.95
2023-04-23T04:16:55.159Z,9.32
2023-04-23T04:19:21.880Z,12.13
2023-04-23T04:21:48.588Z,9.65
2023-04-23T04:24:15.266Z,11.18
2023-04-23T04:26:42.060Z,8.00
2023-04-23T04:29:10.472Z,11.48
2023-04-23T04:31:37.673Z,9.52
2023-04-23T04:34:04.541Z,17.67
2023-04-23T04:36:31.830Z,5.70
2023-04-23T04:38:58.771Z,11.10
2023-04-23T04:41:25.658Z,6.95
2023-04-23T04:43:52.505Z,21.58
2023-04-23T04:46:20.696Z,11.30
2023-04-23T04:48:48.034Z,12.52
2023-04-23T04:51:14.780Z,22.50
2023-04-23T04:53:41.454Z,19.23
2023-04-23T04:56:08.515Z,9.38
2023-04-23T04:58:35.237Z,11.35
2023-04-23T05:01:01.964Z,13.68
2023-04-23T05:03:28.885Z,11.63
2023-04-23T05:05:56.439Z,15.50
2023-04-23T05:08:23.209Z,11.35
2023-04-23T05:10:54.221Z,8.05
2023-04-23T05:13:21.241Z,15.48
2023-04-23T05:15:47.980Z,10.95
2023-04-23T05:18:14.674Z,7.65
2023-04-23T05:20:42.800Z,10.93
2023-04-23T05:23:09.575Z,14.35
2023-04-23T05:25:36.252Z,11.20
2023-04-23T05:28:02.947Z,11.40
2023-04-23T05:30:29.936Z,7.55
2023-04-23T05:32:56.718Z,27.70
2023-04-23T05:35:23.425Z,13.65
2023-04-23T05:37:50.135Z,13.18
2023-04-23T05:40:16.996Z,13.73
2023-04-23T05:42:43.688Z,14.15
2023-04-23T05:45:11.079Z,15.45
2023-04-23T05:47:37.963Z,9.93
2023-04-23T05:50:05.667Z,9.95
2023-04-23T05:52:33.534Z,16.15
2023-04-23T05:55:00.317Z,13.30
2023-04-23T05:57:26.996Z,12.55
2023-04-23T05:59:53.708Z,7.97
2023-04-23T06:02:22.506Z,7.10
2023-04-23T06:04:50.996Z,12.00
2023-04-23T06:07:17.811Z,11.10
2023-04-23T06:09:44.551Z,13.60
2023-04-23T06:12:11.448Z,9.85
2023-04-23T06:14:38.152Z,9.52
2023-04-23T06:17:04.843Z,9.68
2023-04-23T06:19:31.607Z,12.05
2023-04-23T06:21:58.346Z,11.30
2023-04-23T06:24:25.028Z,16.92
2023-04-23T06:26:51.769Z,9.02
2023-04-23T06:29:18.523Z,9.25
2023-04-23T06:31:45.640Z,12.88
2023-04-23T06:34:12.363Z,11.30
2023-04-23T06:36:39.030Z,9.50
2023-04-23T06:39:05.828Z,7.55
2023-04-23T06:41:32.511Z,9.65
2023-04-23T06:43:59.198Z,11.93
2023-04-23T06:46:25.923Z,6.43
2023-04-23T06:48:52.627Z,18.63
2023-04-23T06:51:19.505Z,11.45
2023-04-23T06:53:47.089Z,8.05
2023-04-23T06:56:13.862Z,13.95
2023-04-23T06:58:41.183Z,6.38
2023-04-23T07:01:08.117Z,9.82
2023-04-23T07:03:36.429Z,7.45
2023-04-23T07:06:03.365Z,9.45
2023-04-23T07:08:30.147Z,13.07
2023-04-23T07:10:56.881Z,4.22
2023-04-23T07:13:24.197Z,6.38
2023-04-23T07:15:51.049Z,9.43
2023-04-23T07:18:17.791Z,10.70
2023-04-23T07:20:44.503Z,15.45
2023-04-23T07:23:11.466Z,7.40
2023-04-23T07:25:38.213Z,8.38
2023-04-23T07:28:04.993Z,8.25
2023-04-23T07:30:31.750Z,6.60
2023-04-23T07:32:58.530Z,10.90
2023-04-23T07:35:26.700Z,10.57
2023-04-23T07:37:55.958Z,6.78
2023-04-23T07:40:23.113Z,12.60
2023-04-23T07:42:50.526Z,5.82
2023-04-23T07:45:17.776Z,6.38
2023-04-23T07:47:46.055Z,6.70
2023-04-23T07:50:12.815Z,8.32
2023-04-23T07:52:39.638Z,13.68
2023-04-23T07:55:06.846Z,5.57
2023-04-23T07:57:33.563Z,11.98
2023-04-23T08:00:00.360Z,6.57
2023-04-23T08:02:27.719Z,6.63
2023-04-23T08:04:54.828Z,6.88
2023-04-23T08:07:21.807Z,9.80
2023-04-23T08:09:49.045Z,10.38
2023-04-23T08:12:17.411Z,5.72
2023-04-23T08:14:44.652Z,6.20
2023-04-23T08:17:11.352Z,9.75
2023-04-23T08:19:38.029Z,9.50
2023-04-23T08:22:04.804Z,8.65
2023-04-23T08:24:31.515Z,10.55
2023-04-23T08:26:58.305Z,6.13
2023-04-23T08:29:25.184Z,10.82
2023-04-23T08:31:51.916Z,16.15
2023-04-23T08:34:18.650Z,14.95
2023-04-23T08:36:46.433Z,4.82
2023-04-23T08:39:13.126Z,11.63
2023-04-23T08:41:42.712Z,8.40
2023-04-23T08:44:15.590Z,5.68
2023-04-23T08:46:43.475Z,9.82
2023-04-23T08:49:13.928Z,11.77
2023-04-23T08:51:42.961Z,12.20
2023-04-23T08:54:09.946Z,9.80
2023-04-23T08:56:37.412Z,7.07
2023-04-23T08:59:04.168Z,14.55
2023-04-23T09:01:31.006Z,6.65
2023-04-23T09:03:57.812Z,11.85
2023-04-23T09:06:24.623Z,11.65
2023-04-23T09:08:51.333Z,10.73
2023-04-23T09:11:18.043Z,11.70
2023-04-23T09:13:44.734Z,13.65
2023-04-23T09:16:11.533Z,12.05
2023-04-23T09:18:38.232Z,6.50
2023-04-23T09:21:04.947Z,11.73
2023-04-23T09:23:32.126Z,13.00
2023-04-23T09:25:58.844Z,9.90
2023-04-23T09:28:35.893Z,9.82
2023-04-23T09:31:02.788Z,11.93
2023-04-23T09:33:29.477Z,5.82
2023-04-23T09:35:56.137Z,10.40
2023-04-23T09:38:22.827Z,22.88
2023-04-23T09:40:50.691Z,7.68
2023-04-23T09:43:17.360Z,8.35
2023-04-23T09:45:50.492Z,5.93
2023-04-23T09:48:17.335Z,10.07
2023-04-23T09:50:44.011Z,6.82
2023-04-23T09:53:10.892Z,6.70
2023-04-23T09:55:42.965Z,7.45
2023-04-23T09:58:15.102Z,5.57
2023-04-23T10:00:42.048Z,6.40
2023-04-23T10:03:09.839Z,9.15
2023-04-23T10:05:59.720Z,7.72
2023-04-23T10:08:28.191Z,11.70
2023-04-23T10:11:09.432Z,7.28
2023-04-23T10:13:40.838Z,4.75
2023-04-23T10:16:20.653Z,6.18
2023-04-23T10:18:50.960Z,5.00
2023-04-23T10:21:17.671Z,6.75
2023-04-23T10:23:44.730Z,3.45
2023-04-23T10:26:12.329Z,4.82
2023-04-23T10:28:39.224Z,1.63
2023-04-23T10:31:06.163Z,5.50
2023-04-23T10:33:39.783Z,3.88
2023-04-23T10:36:12.717Z,5.85
2023-04-23T10:38:54.614Z,4.28
2023-04-23T10:41:24.592Z,6.25
2023-04-23T10:43:53.370Z,2.40
2023-04-23T10:46:33.102Z,2.97
2023-04-23T10:49:16.674Z,4.60
2023-04-23T10:52:18.020Z,8.35
2023-04-23T10:54:33.249Z,2.75
2023-04-23T10:57:01.726Z,8.00
2023-04-23T10:59:32.092Z,4.03
2023-04-23T11:02:02.394Z,3.28
2023-04-23T11:04:29.996Z,4.32
2023-04-23T11:06:58.272Z,4.50
2023-04-23T11:09:32.670Z,4.00
2023-04-23T11:12:03.315Z,2.83
2023-04-23T11:14:43.886Z,5.07
2023-04-23T11:17:15.830Z,6.00
2023-04-23T11:19:43.330Z,5.88
2023-04-23T11:22:18.626Z,2.67
2023-04-23T11:24:48.272Z,8.45
2023-04-23T11:27:17.608Z,3.80
2023-04-23T11:29:45.895Z,4.95
2023-04-23T11:32:14.149Z,13.77
2023-04-23T11:34:43.113Z,6.18
2023-04-23T11:37:11.039Z,10.07
2023-04-23T11:39:38.310Z,8.65
2023-04-23T11:42:05.844Z,7.40
2023-04-23T11:44:32.558Z,4.13
2023-04-23T11:47:02.619Z,5.72
2023-04-23T11:49:29.436Z,5.30
2023-04-23T11:51:58.293Z,5.47
2023-04-23T11:54:28.304Z,5.35
2023-04-23T11:56:55.189Z,3.15
2023-04-23T11:59:22.143Z,3.42
2023-04-23T12:01:51.589Z,6.00
2023-04-23T12:04:41.232Z,3.88
2023-04-23T12:07:15.970Z,3.28
2023-04-23T12:09:49.974Z,3.08
2023-04-23T12:12:16.735Z,4.30
2023-04-23T12:14:43.714Z,2.88
2023-04-23T12:17:11.162Z,2.45
2023-04-23T12:19:38.456Z,8.95
2023-04-23T12:22:05.273Z,4.65
2023-04-23T12:24:48.689Z,2.55
2023-04-23T12:27:16.108Z,3.22
2023-04-23T12:29:43.281Z,5.30
2023-04-23T12:32:11.297Z,2.55
2023-04-23T12:34:38.034Z,9.32
2023-04-23T12:37:06.828Z,4.60
2023-04-23T12:39:34.493Z,7.15
2023-04-23T12:42:04.810Z,4.68
2023-04-23T12:44:35.648Z,6.40
2023-04-23T12:47:04.811Z,4.53
2023-04-23T12:49:32.155Z,4.72
2023-04-23T12:52:02.485Z,6.00
2023-04-23T12:54:32.207Z,5.63
2023-04-23T12:56:59.760Z,5.85
2023-04-23T12:59:26.658Z,4.30
2023-04-23T13:01:53.876Z,3.33
2023-04-23T13:04:20.994Z,3.22
2023-04-23T13:06:47.902Z,4.72
2023-04-23T13:09:14.609Z,7.15
2023-04-23T13:11:41.344Z,3.78
2023-04-23T13:14:09.052Z,4.38
2023-04-23T13:16:36.523Z,3.80
2023-04-23T13:19:04.647Z,4.13
2023-04-23T13:21:31.334Z,3.45
2023-04-23T13:23:58.040Z,2.42
2023-04-23T13:26:24.809Z,2.67
2023-04-23T13:28:51.493Z,4.60
2023-04-23T13:31:18.264Z,4.10
2023-04-23T13:33:44.991Z,3.75
2023-04-23T13:36:11.704Z,3.38
2023-04-23T13:38:38.446Z,4.78
2023-04-23T13:41:05.244Z,2.80
2023-04-23T13:43:31.945Z,3.80
2023-04-23T13:45:59.008Z,1.63
2023-04-23T13:48:28.773Z,1.80
2023-04-23T13:50:55.862Z,2.25
2023-04-23T13:53:22.843Z,4.68
2023-04-23T13:55:49.581Z,2.72
2023-04-23T13:58:16.302Z,4.60
2023-04-23T14:00:43.199Z,1.52
2023-04-23T14:03:09.975Z,3.25
2023-04-23T14:05:36.941Z,2.08
2023-04-23T14:08:03.656Z,2.67
2023-04-23T14:10:30.787Z,1.80
2023-04-23T14:12:57.529Z,2.20
2023-04-23T14:15:24.294Z,3.70
2023-04-23T14:17:51.070Z,1.73
2023-04-23T14:20:20.057Z,2.88
2023-04-23T14:22:51.083Z,5.95
2023-04-23T14:25:34.627Z,2.60
2023-04-23T14:28:03.660Z,3.33
2023-04-23T14:30:31.503Z,3.25
2023-04-23T14:32:58.211Z,5.03
2023-04-23T14:35:41.613Z,3.65
2023-04-23T14:38:09.661Z,3.63
2023-04-23T14:40:36.312Z,4.82
2023-04-23T14:43:14.448Z,4.60
2023-04-23T14:45:42.262Z,9.32
2023-04-23T14:48:08.975Z,4.25
2023-04-23T14:50:35.727Z,4.78
2023-04-23T14:53:07.100Z,7.03
2023-04-23T14:55:34.231Z,4.60
2023-04-23T14:58:01.440Z,4.28
2023-04-23T15:00:28.415Z,6.22
2023-04-23T15:02:55.307Z,4.90
2023-04-23T15:05:22.223Z,4.57
2023-04-23T15:07:48.932Z,8.07
2023-04-23T15:10:16.063Z,4.07
2023-04-23T15:12:42.863Z,4.68
2023-04-23T15:15:16.620Z,4.85
2023-04-23T15:17:43.492Z,9.30
2023-04-23T15:20:11.755Z,5.90
2023-04-23T15:22:38.501Z,6.40
2023-04-23T15:25:05.642Z,5.93
2023-04-23T15:27:32.339Z,6.70
2023-04-23T15:29:59.010Z,6.90
2023-04-23T15:32:25.994Z,5.72
2023-04-23T15:34:52.852Z,4.50
2023-04-23T15:37:21.081Z,4.72
2023-04-23T15:39:47.750Z,6.07
2023-04-23T15:42:16.418Z,5.25
2023-04-23T15:44:43.150Z,7.45
2023-04-23T15:47:09.813Z,5.72
2023-04-23T15:49:36.488Z,4.25
2023-04-23T15:52:03.165Z,7.00
2023-04-23T15:54:30.092Z,5.72
2023-04-23T15:56:57.080Z,4.28
2023-04-23T15:59:23.965Z,5.07
2023-04-23T16:01:50.816Z,7.88
2023-04-23T16:04:17.677Z,4.65
2023-04-23T16:06:44.638Z,7.03
2023-04-23T16:09:11.305Z,3.97
2023-04-23T16:11:38.378Z,4.57
2023-04-23T16:14:05.354Z,4.78
2023-04-23T16:16:32.221Z,4.15
2023-04-23T16:18:59.135Z,4.15
2023-04-23T16:21:27.938Z,4.63
2023-04-23T16:23:55.097Z,4.40
2023-04-23T16:26:21.922Z,3.05
2023-04-23T16:28:52.168Z,4.35
2023-04-23T16:31:27.822Z,4.53
2023-04-23T16:33:54.575Z,5.25
2023-04-23T16:36:21.304Z,4.82
2023-04-23T16:38:49.602Z,4.00
2023-04-23T16:41:17.679Z,4.40
2023-04-23T16:43:44.437Z,4.57
2023-04-23T16:46:11.208Z,4.57
2023-04-23T16:48:38.042Z,5.68
2023-04-23T16:51:05.025Z,5.28
2023-04-23T16:53:31.812Z,7.22
2023-04-23T16:55:59.063Z,3.88
2023-04-23T16:58:25.926Z,5.95
2023-04-23T17:00:52.597Z,5.47
2023-04-23T17:03:19.374Z,4.20
2023-04-23T17:05:48.101Z,3.70
2023-04-23T17:08:14.837Z,3.13
2023-04-23T17:10:41.514Z,4.53
2023-04-23T17:13:08.232Z,5.10
2023-04-23T17:15:34.893Z,5.43
2023-04-23T17:18:01.608Z,4.72
2023-04-23T17:20:28.995Z,4.70
2023-04-23T17:22:55.852Z,7.35
2023-04-23T17:25:22.613Z,6.63
2023-04-23T17:27:49.369Z,7.22
2023-04-23T17:30:16.214Z,5.03
2023-04-23T17:32:42.972Z,5.72
2023-04-23T17:35:10.869Z,5.72
2023-04-23T17:37:37.820Z,5.35
2023-04-23T17:40:05.887Z,3.58
2023-04-23T17:42:32.955Z,3.45
2023-04-23T17:44:59.635Z,2.25
2023-04-23T17:47:27.844Z,3.03
2023-04-23T17:49:54.701Z,2.15
2023-04-23T17:52:21.553Z,2.90
2023-04-23T17:54:48.267Z,2.60
2023-04-23T17:57:15.127Z,3.35
2023-04-23T17:59:42.027Z,3.53
2023-04-23T18:02:09.108Z,6.00
2023-04-23T18:04:36.676Z,5.03
2023-04-23T18:07:03.503Z,6.40
2023-04-23T18:09:30.325Z,8.15
2023-04-23T18:11:59.050Z,7.50
2023-04-23T18:14:25.791Z,8.27
2023-04-23T18:16:52.686Z,9.43
2023-04-23T18:19:19.535Z,9.20
2023-04-23T18:21:46.236Z,6.97
2023-04-23T18:24:13.342Z,7.18
2023-04-23T18:26:40.103Z,11.43
2023-04-23T18:29:06.822Z,6.10
2023-04-23T18:31:33.550Z,6.15
2023-04-23T18:34:02.251Z,8.93
2023-04-23T18:36:33.072Z,5.63
2023-04-23T18:38:59.851Z,6.43
2023-04-23T18:41:29.771Z,6.68
2023-04-23T18:43:56.922Z,4.90
2023-04-23T18:46:23.659Z,6.05
2023-04-23T18:49:09.196Z,4.95
2023-04-23T18:51:43.913Z,6.30
2023-04-23T18:54:14.805Z,10.40
2023-04-23T18:56:41.713Z,5.20
2023-04-23T18:59:08.446Z,7.97
2023-04-23T19:01:35.512Z,6.68
2023-04-23T19:04:02.426Z,5.93
2023-04-23T19:06:29.283Z,6.95
2023-04-23T19:08:56.027Z,6.50
2023-04-23T19:11:22.756Z,6.53
2023-04-23T19:13:49.513Z,5.55
2023-04-23T19:16:18.210Z,5.85
2023-04-23T19:18:45.118Z,5.15
2023-04-23T19:21:11.993Z,8.68
2023-04-23T19:23:38.676Z,5.63
2023-04-23T19:26:05.648Z,7.10
2023-04-23T19:28:32.397Z,4.38
2023-04-23T19:30:59.166Z,4.95
2023-04-23T19:33:25.972Z,6.15
2023-04-23T19:35:52.731Z,5.10
2023-04-23T19:38:20.068Z,3.83
2023-04-23T19:40:46.723Z,4.97
2023-04-23T19:43:13.802Z,4.28
2023-04-23T19:45:40.511Z,4.15
2023-04-23T19:48:08.186Z,5.88
2023-04-23T19:50:35.106Z,7.53
2023-04-23T19:53:01.792Z,5.05
2023-04-23T19:55:28.586Z,9.43
2023-04-23T19:57:55.570Z,4.65
2023-04-23T20:00:24.012Z,7.40
2023-04-23T20:02:55.364Z,6.75
2023-04-23T20:05:22.410Z,8.07
2023-04-23T20:07:49.072Z,10.48
2023-04-23T20:10:17.419Z,9.70
2023-04-23T20:12:44.497Z,6.00
2023-04-23T20:15:11.253Z,5.70
2023-04-23T20:17:38.138Z,7.22
2023-04-23T20:20:06.583Z,9.43
2023-04-23T20:22:34.214Z,7.85
2023-04-23T20:25:03.757Z,9.35
2023-04-23T20:27:30.521Z,10.60
2023-04-23T20:29:57.421Z,8.40
2023-04-23T20:32:24.121Z,7.70
2023-04-23T20:34:50.947Z,9.82
2023-04-23T20:37:21.426Z,8.07
2023-04-23T20:39:49.239Z,8.48
2023-04-23T20:42:18.473Z,7.90
2023-04-23T20:44:48.970Z,7.72
2023-04-23T20:47:16.419Z,7.95
2023-04-23T20:49:43.538Z,8.40
2023-04-23T20:52:10.657Z,10.02
2023-04-23T20:54:37.427Z,8.35
2023-04-23T20:57:04.274Z,9.75
2023-04-23T20:59:31.303Z,10.32
2023-04-23T21:01:58.268Z,10.80
2023-04-23T21:04:25.215Z,10.35
2023-04-23T21:06:52.034Z,9.93
2023-04-23T21:09:18.820Z,10.50
2023-04-23T21:11:45.909Z,10.85
2023-04-23T21:14:12.689Z,12.00
2023-04-23T21:16:39.416Z,14.05
2023-04-23T21:19:06.170Z,13.15
2023-04-23T21:21:33.036Z,12.60
2023-04-23T21:24:00.693Z,12.32
2023-04-23T21:26:29.115Z,20.10
2023-04-23T21:28:56.243Z,21.85
2023-04-23T21:31:47.900Z,14.63
2023-04-23T21:34:15.087Z,13.38
2023-04-23T21:36:41.905Z,14.73
2023-04-23T21:39:09.245Z,15.82
2023-04-23T21:41:36.680Z,15.82
2023-04-23T21:44:03.526Z,14.90
2023-04-23T21:46:32.081Z,17.30
2023-04-23T21:48:58.798Z,15.98
2023-04-23T21:51:26.142Z,15.05
2023-04-23T21:53:52.813Z,17.45
2023-04-23T21:56:19.582Z,18.95
2023-04-23T21:58:46.266Z,17.83
2023-04-23T22:01:13.507Z,21.17
2023-04-23T22:03:46.617Z,21.45
2023-04-23T22:06:15.501Z,20.00
2023-04-23T22:08:44.568Z,20.13
2023-04-23T22:11:11.539Z,18.02
2023-04-23T22:13:38.387Z,22.63
2023-04-23T22:16:13.378Z,21.95
2023-04-23T22:18:44.656Z,16.90
2023-04-23T22:21:11.395Z,18.27
2023-04-23T22:23:38.053Z,19.02
2023-04-23T22:26:04.749Z,17.70
2023-04-23T22:28:31.454Z,24.20
2023-04-23T22:30:58.106Z,19.15
2023-04-23T22:33:26.526Z,23.85
2023-04-23T22:35:53.454Z,16.88
2023-04-23T22:38:20.237Z,21.80
2023-04-23T22:40:46.991Z,22.58
2023-04-23T22:43:13.695Z,19.23
2023-04-23T22:45:40.657Z,22.13
2023-04-23T22:48:07.509Z,19.58
2023-04-23T22:50:34.346Z,21.75
2023-04-23T22:53:01.232Z,21.05
2023-04-23T22:55:27.919Z,21.98
2023-04-23T22:57:54.588Z,29.23
2023-04-23T23:00:21.786Z,20.55
2023-04-23T23:02:48.664Z,24.60
2023-04-23T23:05:15.553Z,24.00
2023-04-23T23:07:42.296Z,25.60
2023-04-23T23:10:09.601Z,26.70
2023-04-23T23:12:36.907Z,26.42
2023-04-23T23:15:03.910Z,27.02
2023-04-23T23:17:30.605Z,24.85
2023-04-23T23:19:57.315Z,23.45
2023-04-23T23:22:24.026Z,26.73
2023-04-23T23:24:50.691Z,27.15
2023-04-23T23:27:17.396Z,33.97
2023-04-23T23:29:44.270Z,26.10
2023-04-23T23:32:11.271Z,30.52
2023-04-23T23:34:38.224Z,28.88
2023-04-23T23:37:05.040Z,29.98
2023-04-23T23:39:31.780Z,28.70
2023-04-23T23:41:59.835Z,32.78
2023-04-23T23:44:26.693Z,30.63
2023-04-23T23:46:53.412Z,27.30
2023-04-23T23:49:20.391Z,32.10
2023-04-23T23:51:47.164Z,34.38
2023-04-23T23:54:13.980Z,32.60
2023-04-23T23:56:40.966Z,33.30
2023-04-23T23:59:07.712Z,32.10
